sensor_id;sensor_type;location;lat;lon;timestamp;P1;durP1;ratioP1;P2;durP2;ratioP2
49101;SDS011;34913;47.520;19.186;2023-10-19T00:01:58;11.48;;;7.90;;
49101;SDS011;34913;47.520;19.186;2023-10-19T00:04:27;19.40;;;8.52;;
49101;SDS011;34913;47.520;19.186;2023-10-19T00:06:57;16.40;;;7.15;;
49101;SDS011;34913;47.520;19.186;2023-10-19T00:09:22;12.25;;;7.93;;
49101;SDS011;34913;47.520;19.186;2023-10-19T00:11:48;11.63;;;8.05;;
49101;SDS011;34913;47.520;19.186;2023-10-19T00:14:16;14.18;;;8.60;;
49101;SDS011;34913;47.520;19.186;2023-10-19T00:16:43;13.88;;;7.82;;
49101;SDS011;34913;47.520;19.186;2023-10-19T00:19:15;15.38;;;7.97;;
49101;SDS011;34913;47.520;19.186;2023-10-19T00:21:44;12.30;;;8.15;;
49101;SDS011;34913;47.520;19.186;2023-10-19T00:24:17;13.23;;;8.10;;
49101;SDS011;34913;47.520;19.186;2023-10-19T00:26:44;11.90;;;7.97;;
49101;SDS011;34913;47.520;19.186;2023-10-19T00:29:10;13.98;;;8.68;;
49101;SDS011;34913;47.520;19.186;2023-10-19T00:31:54;16.02;;;8.48;;
49101;SDS011;34913;47.520;19.186;2023-10-19T00:34:21;13.38;;;8.70;;
49101;SDS011;34913;47.520;19.186;2023-10-19T00:36:47;15.02;;;8.40;;
49101;SDS011;34913;47.520;19.186;2023-10-19T00:39:13;12.52;;;8.10;;
49101;SDS011;34913;47.520;19.186;2023-10-19T00:41:59;10.52;;;7.82;;
49101;SDS011;34913;47.520;19.186;2023-10-19T00:44:27;13.90;;;8.43;;
49101;SDS011;34913;47.520;19.186;2023-10-19T00:47:08;13.25;;;7.85;;
49101;SDS011;34913;47.520;19.186;2023-10-19T00:49:44;14.30;;;8.52;;
49101;SDS011;34913;47.520;19.186;2023-10-19T00:52:10;15.40;;;8.75;;
49101;SDS011;34913;47.520;19.186;2023-10-19T00:54:44;12.13;;;8.30;;
49101;SDS011;34913;47.520;19.186;2023-10-19T00:57:15;14.15;;;8.38;;
49101;SDS011;34913;47.520;19.186;2023-10-19T00:59:45;11.90;;;8.48;;
49101;SDS011;34913;47.520;19.186;2023-10-19T01:04:50;11.93;;;8.35;;
49101;SDS011;34913;47.520;19.186;2023-10-19T01:07:30;13.40;;;8.77;;
49101;SDS011;34913;47.520;19.186;2023-10-19T01:09:59;15.18;;;9.25;;
49101;SDS011;34913;47.520;19.186;2023-10-19T01:12:28;15.40;;;8.52;;
49101;SDS011;34913;47.520;19.186;2023-10-19T01:15:02;15.63;;;9.10;;
49101;SDS011;34913;47.520;19.186;2023-10-19T01:17:52;14.85;;;9.32;;
49101;SDS011;34913;47.520;19.186;2023-10-19T01:20:22;15.25;;;9.27;;
49101;SDS011;34913;47.520;19.186;2023-10-19T01:22:59;15.60;;;9.43;;
49101;SDS011;34913;47.520;19.186;2023-10-19T01:28:21;15.43;;;9.90;;
49101;SDS011;34913;47.520;19.186;2023-10-19T01:31:03;15.18;;;9.38;;
49101;SDS011;34913;47.520;19.186;2023-10-19T01:33:31;16.23;;;9.93;;
49101;SDS011;34913;47.520;19.186;2023-10-19T01:35:57;16.15;;;10.32;;
49101;SDS011;34913;47.520;19.186;2023-10-19T01:38:39;17.85;;;11.23;;
49101;SDS011;34913;47.520;19.186;2023-10-19T01:41:06;16.08;;;10.57;;
49101;SDS011;34913;47.520;19.186;2023-10-19T01:43:41;17.13;;;10.82;;
49101;SDS011;34913;47.520;19.186;2023-10-19T01:46:08;15.07;;;11.23;;
49101;SDS011;34913;47.520;19.186;2023-10-19T01:48:40;16.77;;;10.98;;
49101;SDS011;34913;47.520;19.186;2023-10-19T01:51:07;18.50;;;10.88;;
49101;SDS011;34913;47.520;19.186;2023-10-19T01:53:43;17.05;;;11.35;;
49101;SDS011;34913;47.520;19.186;2023-10-19T01:56:12;18.05;;;11.65;;
49101;SDS011;34913;47.520;19.186;2023-10-19T01:58:40;16.67;;;11.02;;
49101;SDS011;34913;47.520;19.186;2023-10-19T02:01:07;18.58;;;11.55;;
49101;SDS011;34913;47.520;19.186;2023-10-19T02:03:40;19.38;;;12.40;;
49101;SDS011;34913;47.520;19.186;2023-10-19T02:06:08;17.42;;;11.90;;
49101;SDS011;34913;47.520;19.186;2023-10-19T02:08:58;19.60;;;12.60;;
49101;SDS011;34913;47.520;19.186;2023-10-19T02:11:34;20.00;;;13.30;;
49101;SDS011;34913;47.520;19.186;2023-10-19T02:16:39;21.65;;;13.80;;
49101;SDS011;34913;47.520;19.186;2023-10-19T02:19:05;21.55;;;14.20;;
49101;SDS011;34913;47.520;19.186;2023-10-19T02:21:30;22.10;;;14.68;;
49101;SDS011;34913;47.520;19.186;2023-10-19T02:23:56;20.80;;;14.57;;
49101;SDS011;34913;47.520;19.186;2023-10-19T02:26:22;22.48;;;14.82;;
49101;SDS011;34913;47.520;19.186;2023-10-19T02:28:50;22.50;;;14.88;;
49101;SDS011;34913;47.520;19.186;2023-10-19T02:31:16;26.40;;;14.57;;
49101;SDS011;34913;47.520;19.186;2023-10-19T02:33:47;25.73;;;14.80;;
49101;SDS011;34913;47.520;19.186;2023-10-19T02:36:17;22.58;;;15.35;;
49101;SDS011;34913;47.520;19.186;2023-10-19T02:38:44;21.60;;;15.65;;
49101;SDS011;34913;47.520;19.186;2023-10-19T02:41:17;22.17;;;16.25;;
49101;SDS011;34913;47.520;19.186;2023-10-19T02:43:44;25.20;;;16.70;;
49101;SDS011;34913;47.520;19.186;2023-10-19T02:46:12;25.50;;;16.58;;
49101;SDS011;34913;47.520;19.186;2023-10-19T02:48:39;25.00;;;16.58;;
49101;SDS011;34913;47.520;19.186;2023-10-19T02:51:10;23.55;;;16.88;;
49101;SDS011;34913;47.520;19.186;2023-10-19T02:53:37;26.42;;;18.48;;
49101;SDS011;34913;47.520;19.186;2023-10-19T02:56:10;27.80;;;18.17;;
49101;SDS011;34913;47.520;19.186;2023-10-19T02:58:42;25.48;;;18.13;;
49101;SDS011;34913;47.520;19.186;2023-10-19T03:01:16;27.92;;;18.58;;
49101;SDS011;34913;47.520;19.186;2023-10-19T03:03:46;26.15;;;18.20;;
49101;SDS011;34913;47.520;19.186;2023-10-19T03:06:19;33.33;;;19.27;;
49101;SDS011;34913;47.520;19.186;2023-10-19T03:08:48;28.33;;;18.17;;
49101;SDS011;34913;47.520;19.186;2023-10-19T03:11:23;25.35;;;17.45;;
49101;SDS011;34913;47.520;19.186;2023-10-19T03:13:49;23.70;;;17.25;;
49101;SDS011;34913;47.520;19.186;2023-10-19T03:16:15;28.98;;;18.10;;
49101;SDS011;34913;47.520;19.186;2023-10-19T03:18:42;25.73;;;17.52;;
49101;SDS011;34913;47.520;19.186;2023-10-19T03:21:08;27.83;;;18.67;;
49101;SDS011;34913;47.520;19.186;2023-10-19T03:23:35;32.17;;;19.95;;
49101;SDS011;34913;47.520;19.186;2023-10-19T03:26:02;28.58;;;19.65;;
49101;SDS011;34913;47.520;19.186;2023-10-19T03:28:47;30.15;;;20.08;;
49101;SDS011;34913;47.520;19.186;2023-10-19T03:31:12;33.40;;;20.13;;
49101;SDS011;34913;47.520;19.186;2023-10-19T03:33:46;31.77;;;21.08;;
49101;SDS011;34913;47.520;19.186;2023-10-19T03:36:24;29.67;;;19.73;;
49101;SDS011;34913;47.520;19.186;2023-10-19T03:38:50;29.98;;;19.10;;
49101;SDS011;34913;47.520;19.186;2023-10-19T03:41:18;29.35;;;19.88;;
49101;SDS011;34913;47.520;19.186;2023-10-19T03:43:48;34.85;;;20.25;;
49101;SDS011;34913;47.520;19.186;2023-10-19T03:46:16;28.90;;;18.92;;
49101;SDS011;34913;47.520;19.186;2023-10-19T03:48:53;26.52;;;18.52;;
49101;SDS011;34913;47.520;19.186;2023-10-19T03:51:23;28.92;;;18.35;;
49101;SDS011;34913;47.520;19.186;2023-10-19T03:53:50;27.77;;;19.02;;
49101;SDS011;34913;47.520;19.186;2023-10-19T03:56:20;28.65;;;18.80;;
49101;SDS011;34913;47.520;19.186;2023-10-19T03:58:46;32.03;;;19.05;;
49101;SDS011;34913;47.520;19.186;2023-10-19T04:01:15;25.17;;;17.75;;
49101;SDS011;34913;47.520;19.186;2023-10-19T04:03:42;27.55;;;17.27;;
49101;SDS011;34913;47.520;19.186;2023-10-19T04:06:08;25.70;;;18.33;;
49101;SDS011;34913;47.520;19.186;2023-10-19T04:08:39;28.00;;;17.60;;
49101;SDS011;34913;47.520;19.186;2023-10-19T04:11:04;28.55;;;18.48;;
49101;SDS011;34913;47.520;19.186;2023-10-19T04:13:33;28.90;;;18.10;;
49101;SDS011;34913;47.520;19.186;2023-10-19T04:15:59;26.17;;;17.55;;
49101;SDS011;34913;47.520;19.186;2023-10-19T04:18:25;27.88;;;18.20;;
49101;SDS011;34913;47.520;19.186;2023-10-19T04:20:50;29.20;;;18.42;;
49101;SDS011;34913;47.520;19.186;2023-10-19T04:23:19;27.35;;;17.70;;
49101;SDS011;34913;47.520;19.186;2023-10-19T04:25:46;28.10;;;17.80;;
49101;SDS011;34913;47.520;19.186;2023-10-19T04:28:12;27.02;;;17.63;;
49101;SDS011;34913;47.520;19.186;2023-10-19T04:30:41;29.05;;;18.67;;
49101;SDS011;34913;47.520;19.186;2023-10-19T04:33:06;29.17;;;18.80;;
49101;SDS011;34913;47.520;19.186;2023-10-19T04:35:35;27.15;;;18.05;;
49101;SDS011;34913;47.520;19.186;2023-10-19T04:38:03;28.40;;;17.83;;
49101;SDS011;34913;47.520;19.186;2023-10-19T04:40:32;27.48;;;18.02;;
49101;SDS011;34913;47.520;19.186;2023-10-19T04:42:58;27.33;;;17.98;;
49101;SDS011;34913;47.520;19.186;2023-10-19T04:45:27;27.73;;;17.77;;
49101;SDS011;34913;47.520;19.186;2023-10-19T04:47:54;27.25;;;18.23;;
49101;SDS011;34913;47.520;19.186;2023-10-19T04:50:20;25.60;;;17.70;;
49101;SDS011;34913;47.520;19.186;2023-10-19T04:52:46;28.58;;;17.58;;
49101;SDS011;34913;47.520;19.186;2023-10-19T04:55:12;25.73;;;17.60;;
49101;SDS011;34913;47.520;19.186;2023-10-19T04:57:38;26.63;;;18.40;;
49101;SDS011;34913;47.520;19.186;2023-10-19T05:00:04;28.13;;;19.27;;
49101;SDS011;34913;47.520;19.186;2023-10-19T05:02:29;25.90;;;18.02;;
49101;SDS011;34913;47.520;19.186;2023-10-19T05:04:55;27.42;;;18.23;;
49101;SDS011;34913;47.520;19.186;2023-10-19T05:07:20;25.13;;;17.83;;
49101;SDS011;34913;47.520;19.186;2023-10-19T05:09:46;25.75;;;17.85;;
49101;SDS011;34913;47.520;19.186;2023-10-19T05:12:12;26.63;;;18.10;;
49101;SDS011;34913;47.520;19.186;2023-10-19T05:14:39;29.45;;;18.38;;
49101;SDS011;34913;47.520;19.186;2023-10-19T05:17:06;29.95;;;19.25;;
49101;SDS011;34913;47.520;19.186;2023-10-19T05:19:34;31.63;;;20.00;;
49101;SDS011;34913;47.520;19.186;2023-10-19T05:22:00;28.83;;;19.10;;
49101;SDS011;34913;47.520;19.186;2023-10-19T05:24:27;28.48;;;18.90;;
49101;SDS011;34913;47.520;19.186;2023-10-19T05:26:53;27.45;;;18.60;;
49101;SDS011;34913;47.520;19.186;2023-10-19T05:29:19;29.45;;;18.85;;
49101;SDS011;34913;47.520;19.186;2023-10-19T05:31:45;30.52;;;19.08;;
49101;SDS011;34913;47.520;19.186;2023-10-19T05:34:11;29.20;;;18.95;;
49101;SDS011;34913;47.520;19.186;2023-10-19T05:36:37;29.30;;;18.15;;
49101;SDS011;34913;47.520;19.186;2023-10-19T05:39:02;27.13;;;17.50;;
49101;SDS011;34913;47.520;19.186;2023-10-19T05:41:35;26.35;;;18.05;;
49101;SDS011;34913;47.520;19.186;2023-10-19T05:44:00;26.23;;;17.48;;
49101;SDS011;34913;47.520;19.186;2023-10-19T05:46:25;29.60;;;17.60;;
49101;SDS011;34913;47.520;19.186;2023-10-19T05:48:54;24.88;;;17.42;;
49101;SDS011;34913;47.520;19.186;2023-10-19T05:51:21;24.48;;;17.00;;
49101;SDS011;34913;47.520;19.186;2023-10-19T05:53:47;28.27;;;18.48;;
49101;SDS011;34913;47.520;19.186;2023-10-19T05:56:13;24.58;;;17.20;;
49101;SDS011;34913;47.520;19.186;2023-10-19T05:58:41;25.73;;;17.25;;
49101;SDS011;34913;47.520;19.186;2023-10-19T06:01:07;23.45;;;16.35;;
49101;SDS011;34913;47.520;19.186;2023-10-19T06:03:32;26.20;;;17.20;;
49101;SDS011;34913;47.520;19.186;2023-10-19T06:05:57;25.65;;;16.77;;
49101;SDS011;34913;47.520;19.186;2023-10-19T06:08:23;24.02;;;16.13;;
49101;SDS011;34913;47.520;19.186;2023-10-19T06:10:52;24.20;;;16.40;;
49101;SDS011;34913;47.520;19.186;2023-10-19T06:13:17;23.58;;;16.58;;
49101;SDS011;34913;47.520;19.186;2023-10-19T06:15:43;26.02;;;17.38;;
49101;SDS011;34913;47.520;19.186;2023-10-19T06:18:09;24.45;;;17.40;;
49101;SDS011;34913;47.520;19.186;2023-10-19T06:20:35;23.83;;;16.30;;
49101;SDS011;34913;47.520;19.186;2023-10-19T06:23:02;25.67;;;17.55;;
49101;SDS011;34913;47.520;19.186;2023-10-19T06:25:31;26.85;;;16.58;;
49101;SDS011;34913;47.520;19.186;2023-10-19T06:28:00;24.33;;;17.15;;
49101;SDS011;34913;47.520;19.186;2023-10-19T06:30:26;26.00;;;17.38;;
49101;SDS011;34913;47.520;19.186;2023-10-19T06:32:56;22.77;;;17.00;;
49101;SDS011;34913;47.520;19.186;2023-10-19T06:35:26;24.75;;;16.90;;
49101;SDS011;34913;47.520;19.186;2023-10-19T06:37:53;24.23;;;16.90;;
49101;SDS011;34913;47.520;19.186;2023-10-19T06:40:22;23.10;;;16.70;;
49101;SDS011;34913;47.520;19.186;2023-10-19T06:42:48;23.88;;;17.05;;
49101;SDS011;34913;47.520;19.186;2023-10-19T06:45:15;24.17;;;16.98;;
49101;SDS011;34913;47.520;19.186;2023-10-19T06:47:45;28.00;;;18.45;;
49101;SDS011;34913;47.520;19.186;2023-10-19T06:50:12;24.58;;;18.00;;
49101;SDS011;34913;47.520;19.186;2023-10-19T06:52:40;26.50;;;17.90;;
49101;SDS011;34913;47.520;19.186;2023-10-19T06:55:08;24.35;;;16.65;;
49101;SDS011;34913;47.520;19.186;2023-10-19T06:57:54;26.17;;;16.45;;
49101;SDS011;34913;47.520;19.186;2023-10-19T07:00:24;25.08;;;17.08;;
49101;SDS011;34913;47.520;19.186;2023-10-19T07:02:54;24.45;;;17.42;;
49101;SDS011;34913;47.520;19.186;2023-10-19T07:05:21;25.10;;;17.13;;
49101;SDS011;34913;47.520;19.186;2023-10-19T07:07:49;24.88;;;18.05;;
49101;SDS011;34913;47.520;19.186;2023-10-19T07:10:17;25.02;;;17.23;;
49101;SDS011;34913;47.520;19.186;2023-10-19T07:12:44;26.20;;;17.10;;
49101;SDS011;34913;47.520;19.186;2023-10-19T07:15:12;27.33;;;17.58;;
49101;SDS011;34913;47.520;19.186;2023-10-19T07:17:44;30.33;;;19.45;;
49101;SDS011;34913;47.520;19.186;2023-10-19T07:20:11;28.02;;;18.77;;
49101;SDS011;34913;47.520;19.186;2023-10-19T07:22:49;30.25;;;19.45;;
49101;SDS011;34913;47.520;19.186;2023-10-19T07:25:14;29.48;;;19.85;;
49101;SDS011;34913;47.520;19.186;2023-10-19T07:27:39;28.52;;;19.20;;
49101;SDS011;34913;47.520;19.186;2023-10-19T07:30:07;26.92;;;18.60;;
49101;SDS011;34913;47.520;19.186;2023-10-19T07:32:34;27.40;;;18.40;;
49101;SDS011;34913;47.520;19.186;2023-10-19T07:35:00;27.15;;;18.15;;
49101;SDS011;34913;47.520;19.186;2023-10-19T07:37:26;23.92;;;17.08;;
49101;SDS011;34913;47.520;19.186;2023-10-19T07:39:52;21.88;;;16.15;;
49101;SDS011;34913;47.520;19.186;2023-10-19T07:42:21;23.58;;;15.75;;
49101;SDS011;34913;47.520;19.186;2023-10-19T07:44:47;22.17;;;15.57;;
49101;SDS011;34913;47.520;19.186;2023-10-19T07:47:12;24.20;;;15.43;;
49101;SDS011;34913;47.520;19.186;2023-10-19T07:49:38;22.38;;;14.85;;
49101;SDS011;34913;47.520;19.186;2023-10-19T07:52:04;22.60;;;16.08;;
49101;SDS011;34913;47.520;19.186;2023-10-19T07:54:32;21.63;;;14.80;;
49101;SDS011;34913;47.520;19.186;2023-10-19T07:56:58;22.38;;;15.18;;
49101;SDS011;34913;47.520;19.186;2023-10-19T07:59:28;23.02;;;15.55;;
49101;SDS011;34913;47.520;19.186;2023-10-19T08:01:54;21.98;;;15.40;;
49101;SDS011;34913;47.520;19.186;2023-10-19T08:04:19;24.67;;;15.13;;
49101;SDS011;34913;47.520;19.186;2023-10-19T08:06:44;24.50;;;14.85;;
49101;SDS011;34913;47.520;19.186;2023-10-19T08:09:10;24.05;;;15.52;;
49101;SDS011;34913;47.520;19.186;2023-10-19T08:11:36;23.42;;;16.00;;
49101;SDS011;34913;47.520;19.186;2023-10-19T08:14:02;23.20;;;16.40;;
49101;SDS011;34913;47.520;19.186;2023-10-19T08:16:27;25.98;;;16.38;;
49101;SDS011;34913;47.520;19.186;2023-10-19T08:18:52;24.48;;;16.17;;
49101;SDS011;34913;47.520;19.186;2023-10-19T08:21:19;25.67;;;16.52;;
49101;SDS011;34913;47.520;19.186;2023-10-19T08:23:44;23.42;;;15.48;;
49101;SDS011;34913;47.520;19.186;2023-10-19T08:26:10;22.55;;;16.25;;
49101;SDS011;34913;47.520;19.186;2023-10-19T08:28:36;24.75;;;16.85;;
49101;SDS011;34913;47.520;19.186;2023-10-19T08:31:02;25.85;;;17.20;;
49101;SDS011;34913;47.520;19.186;2023-10-19T08:33:28;26.88;;;17.48;;
49101;SDS011;34913;47.520;19.186;2023-10-19T08:35:55;26.77;;;16.52;;
49101;SDS011;34913;47.520;19.186;2023-10-19T08:38:22;26.35;;;16.83;;
49101;SDS011;34913;47.520;19.186;2023-10-19T08:40:49;25.80;;;16.83;;
49101;SDS011;34913;47.520;19.186;2023-10-19T08:43:16;24.20;;;17.40;;
49101;SDS011;34913;47.520;19.186;2023-10-19T08:45:44;25.67;;;17.25;;
49101;SDS011;34913;47.520;19.186;2023-10-19T08:48:10;26.33;;;17.35;;
49101;SDS011;34913;47.520;19.186;2023-10-19T08:50:36;25.55;;;17.42;;
49101;SDS011;34913;47.520;19.186;2023-10-19T08:53:03;24.08;;;16.20;;
49101;SDS011;34913;47.520;19.186;2023-10-19T08:55:30;24.98;;;16.77;;
49101;SDS011;34913;47.520;19.186;2023-10-19T08:57:57;23.90;;;16.98;;
49101;SDS011;34913;47.520;19.186;2023-10-19T09:00:26;24.52;;;16.33;;
49101;SDS011;34913;47.520;19.186;2023-10-19T09:02:52;24.27;;;16.15;;
49101;SDS011;34913;47.520;19.186;2023-10-19T09:05:19;23.85;;;16.52;;
49101;SDS011;34913;47.520;19.186;2023-10-19T09:07:47;25.50;;;17.50;;
49101;SDS011;34913;47.520;19.186;2023-10-19T09:10:19;27.40;;;16.92;;
49101;SDS011;34913;47.520;19.186;2023-10-19T09:13:09;24.88;;;17.38;;
49101;SDS011;34913;47.520;19.186;2023-10-19T09:15:34;24.25;;;16.52;;
49101;SDS011;34913;47.520;19.186;2023-10-19T09:18:11;23.48;;;16.08;;
49101;SDS011;34913;47.520;19.186;2023-10-19T09:20:41;25.38;;;16.52;;
49101;SDS011;34913;47.520;19.186;2023-10-19T09:23:17;20.15;;;15.13;;
49101;SDS011;34913;47.520;19.186;2023-10-19T09:25:50;23.33;;;16.77;;
49101;SDS011;34913;47.520;19.186;2023-10-19T09:28:20;23.65;;;15.50;;
49101;SDS011;34913;47.520;19.186;2023-10-19T09:30:47;24.45;;;16.00;;
49101;SDS011;34913;47.520;19.186;2023-10-19T09:33:14;21.23;;;15.57;;
49101;SDS011;34913;47.520;19.186;2023-10-19T09:35:42;23.02;;;16.33;;
49101;SDS011;34913;47.520;19.186;2023-10-19T09:38:10;24.02;;;16.58;;
49101;SDS011;34913;47.520;19.186;2023-10-19T09:40:36;24.52;;;16.95;;
49101;SDS011;34913;47.520;19.186;2023-10-19T09:43:04;28.50;;;17.08;;
49101;SDS011;34913;47.520;19.186;2023-10-19T09:45:33;23.27;;;16.25;;
49101;SDS011;34913;47.520;19.186;2023-10-19T09:48:06;25.30;;;16.13;;
49101;SDS011;34913;47.520;19.186;2023-10-19T09:50:33;26.00;;;17.13;;
49101;SDS011;34913;47.520;19.186;2023-10-19T09:52:59;23.35;;;17.27;;
49101;SDS011;34913;47.520;19.186;2023-10-19T09:58:06;22.20;;;16.33;;
49101;SDS011;34913;47.520;19.186;2023-10-19T10:00:42;23.00;;;15.73;;
49101;SDS011;34913;47.520;19.186;2023-10-19T10:03:32;25.95;;;17.58;;
49101;SDS011;34913;47.520;19.186;2023-10-19T10:06:07;24.10;;;16.75;;
49101;SDS011;34913;47.520;19.186;2023-10-19T10:08:35;23.38;;;16.75;;
49101;SDS011;34913;47.520;19.186;2023-10-19T10:13:56;22.98;;;16.50;;
49101;SDS011;34913;47.520;19.186;2023-10-19T10:16:27;23.90;;;17.17;;
49101;SDS011;34913;47.520;19.186;2023-10-19T10:18:55;24.45;;;17.25;;
49101;SDS011;34913;47.520;19.186;2023-10-19T10:21:25;24.27;;;16.23;;
49101;SDS011;34913;47.520;19.186;2023-10-19T10:23:54;23.02;;;16.77;;
49101;SDS011;34913;47.520;19.186;2023-10-19T10:26:23;32.40;;;18.93;;
49101;SDS011;34913;47.520;19.186;2023-10-19T10:31:44;24.52;;;17.70;;
49101;SDS011;34913;47.520;19.186;2023-10-19T10:34:57;23.83;;;17.98;;
49101;SDS011;34913;47.520;19.186;2023-10-19T10:37:06;24.85;;;18.20;;
49101;SDS011;34913;47.520;19.186;2023-10-19T10:39:37;26.02;;;18.13;;
49101;SDS011;34913;47.520;19.186;2023-10-19T10:42:08;23.92;;;18.65;;
49101;SDS011;34913;47.520;19.186;2023-10-19T10:44:42;24.02;;;18.05;;
49101;SDS011;34913;47.520;19.186;2023-10-19T10:47:16;26.88;;;17.30;;
49101;SDS011;34913;47.520;19.186;2023-10-19T10:49:47;24.95;;;16.73;;
49101;SDS011;34913;47.520;19.186;2023-10-19T10:52:22;22.58;;;17.48;;
49101;SDS011;34913;47.520;19.186;2023-10-19T10:55:09;22.98;;;17.77;;
49101;SDS011;34913;47.520;19.186;2023-10-19T10:57:36;22.45;;;18.30;;
49101;SDS011;34913;47.520;19.186;2023-10-19T11:00:04;23.77;;;17.70;;
49101;SDS011;34913;47.520;19.186;2023-10-19T11:02:37;23.55;;;17.83;;
49101;SDS011;34913;47.520;19.186;2023-10-19T11:05:07;22.27;;;17.40;;
49101;SDS011;34913;47.520;19.186;2023-10-19T11:07:37;22.77;;;18.10;;
49101;SDS011;34913;47.520;19.186;2023-10-19T11:10:02;25.20;;;18.88;;
49101;SDS011;34913;47.520;19.186;2023-10-19T11:12:28;26.55;;;20.13;;
49101;SDS011;34913;47.520;19.186;2023-10-19T11:14:54;27.70;;;20.75;;
49101;SDS011;34913;47.520;19.186;2023-10-19T11:17:23;28.02;;;21.38;;
49101;SDS011;34913;47.520;19.186;2023-10-19T11:19:53;26.85;;;19.98;;
49101;SDS011;34913;47.520;19.186;2023-10-19T11:22:21;29.88;;;20.77;;
49101;SDS011;34913;47.520;19.186;2023-10-19T11:24:47;24.88;;;19.48;;
49101;SDS011;34913;47.520;19.186;2023-10-19T11:27:12;29.20;;;20.08;;
49101;SDS011;34913;47.520;19.186;2023-10-19T11:29:37;25.38;;;19.58;;
49101;SDS011;34913;47.520;19.186;2023-10-19T11:32:03;29.70;;;21.42;;
49101;SDS011;34913;47.520;19.186;2023-10-19T11:34:29;29.83;;;20.83;;
49101;SDS011;34913;47.520;19.186;2023-10-19T11:36:58;26.30;;;20.23;;
49101;SDS011;34913;47.520;19.186;2023-10-19T11:39:28;28.48;;;20.60;;
49101;SDS011;34913;47.520;19.186;2023-10-19T11:41:53;28.60;;;21.10;;
49101;SDS011;34913;47.520;19.186;2023-10-19T11:44:19;27.50;;;20.17;;
49101;SDS011;34913;47.520;19.186;2023-10-19T11:46:44;25.75;;;20.10;;
49101;SDS011;34913;47.520;19.186;2023-10-19T11:49:10;23.88;;;19.02;;
49101;SDS011;34913;47.520;19.186;2023-10-19T11:51:36;25.38;;;19.77;;
49101;SDS011;34913;47.520;19.186;2023-10-19T11:54:04;23.27;;;19.00;;
49101;SDS011;34913;47.520;19.186;2023-10-19T11:56:31;24.70;;;19.05;;
49101;SDS011;34913;47.520;19.186;2023-10-19T11:58:56;24.25;;;19.35;;
49101;SDS011;34913;47.520;19.186;2023-10-19T12:01:22;25.92;;;19.25;;
49101;SDS011;34913;47.520;19.186;2023-10-19T12:03:47;25.20;;;19.30;;
49101;SDS011;34913;47.520;19.186;2023-10-19T12:06:13;25.65;;;20.38;;
49101;SDS011;34913;47.520;19.186;2023-10-19T12:08:44;26.08;;;20.27;;
49101;SDS011;34913;47.520;19.186;2023-10-19T12:11:09;25.13;;;19.42;;
49101;SDS011;34913;47.520;19.186;2023-10-19T12:13:42;23.73;;;19.30;;
49101;SDS011;34913;47.520;19.186;2023-10-19T12:16:13;25.08;;;19.73;;
49101;SDS011;34913;47.520;19.186;2023-10-19T12:18:43;24.70;;;19.63;;
49101;SDS011;34913;47.520;19.186;2023-10-19T12:21:10;26.67;;;19.50;;
49101;SDS011;34913;47.520;19.186;2023-10-19T12:23:42;25.73;;;19.15;;
49101;SDS011;34913;47.520;19.186;2023-10-19T12:26:09;25.63;;;18.67;;
49101;SDS011;34913;47.520;19.186;2023-10-19T12:28:38;23.10;;;18.15;;
49101;SDS011;34913;47.520;19.186;2023-10-19T12:31:05;23.00;;;18.35;;
49101;SDS011;34913;47.520;19.186;2023-10-19T12:33:33;24.25;;;19.27;;
49101;SDS011;34913;47.520;19.186;2023-10-19T12:36:00;24.95;;;19.13;;
49101;SDS011;34913;47.520;19.186;2023-10-19T12:38:25;25.95;;;19.40;;
49101;SDS011;34913;47.520;19.186;2023-10-19T12:40:51;26.15;;;18.98;;
49101;SDS011;34913;47.520;19.186;2023-10-19T12:43:17;24.63;;;18.80;;
49101;SDS011;34913;47.520;19.186;2023-10-19T12:45:50;25.15;;;19.00;;
49101;SDS011;34913;47.520;19.186;2023-10-19T12:48:18;23.90;;;18.98;;
49101;SDS011;34913;47.520;19.186;2023-10-19T12:50:44;25.90;;;18.52;;
49101;SDS011;34913;47.520;19.186;2023-10-19T12:53:10;24.48;;;17.92;;
49101;SDS011;34913;47.520;19.186;2023-10-19T12:55:36;24.38;;;17.77;;
49101;SDS011;34913;47.520;19.186;2023-10-19T12:58:03;24.50;;;17.27;;
49101;SDS011;34913;47.520;19.186;2023-10-19T13:00:33;22.08;;;17.50;;
49101;SDS011;34913;47.520;19.186;2023-10-19T13:03:06;23.95;;;18.00;;
49101;SDS011;34913;47.520;19.186;2023-10-19T13:05:33;23.48;;;17.25;;
49101;SDS011;34913;47.520;19.186;2023-10-19T13:08:02;25.58;;;18.25;;
49101;SDS011;34913;47.520;19.186;2023-10-19T13:10:30;23.65;;;18.65;;
49101;SDS011;34913;47.520;19.186;2023-10-19T13:13:06;24.35;;;18.38;;
49101;SDS011;34913;47.520;19.186;2023-10-19T13:15:36;24.67;;;17.52;;
49101;SDS011;34913;47.520;19.186;2023-10-19T13:18:04;24.75;;;17.77;;
49101;SDS011;34913;47.520;19.186;2023-10-19T13:20:38;22.10;;;17.65;;
49101;SDS011;34913;47.520;19.186;2023-10-19T13:23:08;27.35;;;18.40;;
49101;SDS011;34913;47.520;19.186;2023-10-19T13:25:37;23.13;;;18.17;;
49101;SDS011;34913;47.520;19.186;2023-10-19T13:28:10;24.42;;;18.63;;
49101;SDS011;34913;47.520;19.186;2023-10-19T13:30:56;26.17;;;18.45;;
49101;SDS011;34913;47.520;19.186;2023-10-19T13:33:21;28.50;;;17.85;;
49101;SDS011;34913;47.520;19.186;2023-10-19T13:35:48;24.33;;;17.55;;
49101;SDS011;34913;47.520;19.186;2023-10-19T13:38:16;24.05;;;18.55;;
49101;SDS011;34913;47.520;19.186;2023-10-19T13:40:43;26.58;;;18.55;;
49101;SDS011;34913;47.520;19.186;2023-10-19T13:43:12;24.58;;;17.75;;
49101;SDS011;34913;47.520;19.186;2023-10-19T13:45:43;23.92;;;18.20;;
49101;SDS011;34913;47.520;19.186;2023-10-19T13:48:09;24.05;;;18.02;;
49101;SDS011;34913;47.520;19.186;2023-10-19T13:50:40;23.73;;;17.30;;
49101;SDS011;34913;47.520;19.186;2023-10-19T13:53:08;23.13;;;17.73;;
49101;SDS011;34913;47.520;19.186;2023-10-19T13:55:35;23.27;;;17.50;;
49101;SDS011;34913;47.520;19.186;2023-10-19T13:58:01;23.63;;;17.70;;
49101;SDS011;34913;47.520;19.186;2023-10-19T14:00:27;25.98;;;18.48;;
49101;SDS011;34913;47.520;19.186;2023-10-19T14:02:53;26.58;;;18.55;;
49101;SDS011;34913;47.520;19.186;2023-10-19T14:05:19;26.67;;;18.48;;
49101;SDS011;34913;47.520;19.186;2023-10-19T14:07:45;22.70;;;17.55;;
49101;SDS011;34913;47.520;19.186;2023-10-19T14:10:13;24.50;;;17.90;;
49101;SDS011;34913;47.520;19.186;2023-10-19T14:12:39;25.35;;;17.60;;
49101;SDS011;34913;47.520;19.186;2023-10-19T14:15:14;27.52;;;17.98;;
49101;SDS011;34913;47.520;19.186;2023-10-19T14:17:41;28.50;;;19.08;;
49101;SDS011;34913;47.520;19.186;2023-10-19T14:20:07;27.60;;;19.35;;
49101;SDS011;34913;47.520;19.186;2023-10-19T14:25:08;26.20;;;18.70;;
49101;SDS011;34913;47.520;19.186;2023-10-19T14:27:40;25.73;;;18.45;;
49101;SDS011;34913;47.520;19.186;2023-10-19T14:30:11;26.42;;;18.75;;
49101;SDS011;34913;47.520;19.186;2023-10-19T14:32:44;25.75;;;18.50;;
49101;SDS011;34913;47.520;19.186;2023-10-19T14:35:17;26.77;;;18.92;;
49101;SDS011;34913;47.520;19.186;2023-10-19T14:37:45;25.23;;;18.77;;
49101;SDS011;34913;47.520;19.186;2023-10-19T14:40:19;27.80;;;19.75;;